createdAt,value
2023-02-25T00:00:32.970Z,3.93
2023-02-25T00:01:34.351Z,3.70
2023-02-25T00:02:35.734Z,3.80
2023-02-25T00:03:37.415Z,3.87
2023-02-25T00:04:38.858Z,3.60
2023-02-25T00:05:40.599Z,3.40
2023-02-25T00:06:42.027Z,3.70
2023-02-25T00:07:43.567Z,3.63
2023-02-25T00:08:45.741Z,3.87
2023-02-25T00:09:47.090Z,3.90
2023-02-25T00:10:56.361Z,3.80
2023-02-25T00:11:57.679Z,3.90
2023-02-25T00:13:12.300Z,4.10
2023-02-25T00:14:18.625Z,3.90
2023-02-25T00:15:19.990Z,4.03
2023-02-25T00:16:22.696Z,4.00
2023-02-25T00:17:24.323Z,4.10
2023-02-25T00:18:26.208Z,4.00
2023-02-25T00:19:27.693Z,4.40
2023-02-25T00:20:29.161Z,3.83
2023-02-25T00:21:30.525Z,4.60
2023-02-25T00:22:31.851Z,4.23
2023-02-25T00:23:33.252Z,4.10
2023-02-25T00:24:34.596Z,3.63
2023-02-25T00:25:35.915Z,4.10
2023-02-25T00:26:37.204Z,3.50
2023-02-25T00:27:38.628Z,4.13
2023-02-25T00:28:40.372Z,3.73
2023-02-25T00:29:41.836Z,3.40
2023-02-25T00:30:43.315Z,2.97
2023-02-25T00:31:46.642Z,2.87
2023-02-25T00:32:49.840Z,2.60
2023-02-25T00:33:51.679Z,2.40
2023-02-25T00:34:53.034Z,2.63
2023-02-25T00:35:54.385Z,2.20
2023-02-25T00:36:55.820Z,2.30
2023-02-25T00:38:06.712Z,2.10
2023-02-25T00:39:15.584Z,2.37
2023-02-25T00:40:17.068Z,2.03
2023-02-25T00:41:19.661Z,2.13
2023-02-25T00:42:21.510Z,2.10
2023-02-25T00:43:22.869Z,2.00
2023-02-25T00:44:27.696Z,1.90
2023-02-25T00:45:29.691Z,2.03
2023-02-25T00:46:32.137Z,1.90
2023-02-25T00:47:33.508Z,1.90
2023-02-25T00:48:34.990Z,2.00
2023-02-25T00:49:36.466Z,1.90
2023-02-25T00:50:39.765Z,1.70
2023-02-25T00:51:41.129Z,2.00
2023-02-25T00:52:42.493Z,1.90
2023-02-25T00:53:44.213Z,1.70
2023-02-25T00:54:45.562Z,1.97
2023-02-25T00:55:46.858Z,1.93
2023-02-25T00:56:48.288Z,1.90
2023-02-25T00:57:49.623Z,1.90
2023-02-25T00:58:51.296Z,1.80
2023-02-25T00:59:52.643Z,2.27
2023-02-25T01:00:54.088Z,1.93
2023-02-25T01:01:55.430Z,2.07
2023-02-25T01:02:57.586Z,2.03
2023-02-25T01:03:59.381Z,2.03
2023-02-25T01:05:01.541Z,2.17
2023-02-25T01:06:04.254Z,2.00
2023-02-25T01:07:05.721Z,2.63
2023-02-25T01:08:07.084Z,1.73
2023-02-25T01:09:13.813Z,2.00
2023-02-25T01:10:15.267Z,2.13
2023-02-25T01:11:35.236Z,2.20
2023-02-25T01:12:37.478Z,2.27
2023-02-25T01:13:38.921Z,2.93
2023-02-25T01:14:40.315Z,3.10
2023-02-25T01:15:41.766Z,2.30
2023-02-25T01:16:44.160Z,2.23
2023-02-25T01:17:45.468Z,3.10
2023-02-25T01:18:47.272Z,2.40
2023-02-25T01:19:49.260Z,3.80
2023-02-25T01:20:50.577Z,4.40
2023-02-25T01:21:54.609Z,4.30
2023-02-25T01:22:56.390Z,3.30
2023-02-25T01:23:59.170Z,2.77
2023-02-25T01:25:00.494Z,3.03
2023-02-25T01:26:03.220Z,3.00
2023-02-25T01:27:04.766Z,4.17
2023-02-25T01:28:06.759Z,3.93
2023-02-25T01:29:12.903Z,5.37
2023-02-25T01:30:14.272Z,3.27
2023-02-25T01:31:17.000Z,3.70
2023-02-25T01:32:20.308Z,4.30
2023-02-25T01:33:21.829Z,3.93
2023-02-25T01:34:23.263Z,3.10
2023-02-25T01:35:24.559Z,3.13
2023-02-25T01:36:27.046Z,3.23
2023-02-25T01:37:28.400Z,3.00
2023-02-25T01:38:30.143Z,2.43
2023-02-25T01:39:32.359Z,2.90
2023-02-25T01:40:33.709Z,2.83
2023-02-25T01:41:36.733Z,2.77
2023-02-25T01:42:38.149Z,2.53
2023-02-25T01:43:40.513Z,2.40
2023-02-25T01:45:00.497Z,2.40
2023-02-25T01:46:01.923Z,2.73
2023-02-25T01:47:04.426Z,2.80
2023-02-25T01:48:17.186Z,2.37
2023-02-25T01:49:20.874Z,2.57
2023-02-25T01:50:23.819Z,2.43
2023-02-25T01:51:27.292Z,2.43
2023-02-25T01:52:28.700Z,2.20
2023-02-25T01:53:32.768Z,2.30
2023-02-25T01:54:35.269Z,2.30
2023-02-25T01:55:38.772Z,2.50
2023-02-25T01:56:41.519Z,2.33
2023-02-25T01:57:43.382Z,2.40
2023-02-25T01:58:45.242Z,2.17
2023-02-25T01:59:47.487Z,2.40
2023-02-25T02:00:55.199Z,2.20
2023-02-25T02:01:56.704Z,2.37
2023-02-25T02:02:58.577Z,2.00
2023-02-25T02:04:03.845Z,2.03
2023-02-25T02:05:06.581Z,2.30
2023-02-25T02:06:14.753Z,2.50
2023-02-25T02:07:16.811Z,2.30
2023-02-25T02:08:19.446Z,2.20
2023-02-25T02:09:25.621Z,2.30
2023-02-25T02:10:26.958Z,2.50
2023-02-25T02:11:28.957Z,2.07
2023-02-25T02:12:38.202Z,2.30
2023-02-25T02:13:42.259Z,2.37
2023-02-25T02:14:43.596Z,2.10
2023-02-25T02:15:50.413Z,1.90
2023-02-25T02:17:10.141Z,2.20
2023-02-25T02:18:12.344Z,2.17
2023-02-25T02:19:13.612Z,2.10
2023-02-25T02:20:20.487Z,2.17
2023-02-25T02:21:33.733Z,2.17
2023-02-25T02:22:48.352Z,2.67
2023-02-25T02:24:09.053Z,4.13
2023-02-25T02:25:16.152Z,4.77
2023-02-25T02:26:37.803Z,3.87
2023-02-25T02:27:53.406Z,3.20
2023-02-25T02:29:30.394Z,3.10
2023-02-25T02:30:50.159Z,3.20
2023-02-25T02:32:08.825Z,5.97
2023-02-25T02:33:10.209Z,5.57
2023-02-25T02:34:20.755Z,3.87
2023-02-25T02:35:40.972Z,3.20
2023-02-25T02:36:44.757Z,2.80
2023-02-25T02:37:52.143Z,2.80
2023-02-25T02:38:58.552Z,2.47
2023-02-25T02:40:18.541Z,2.57
2023-02-25T02:41:36.076Z,2.50
2023-02-25T02:42:43.861Z,2.40
2023-02-25T02:43:55.400Z,2.90
2023-02-25T02:45:06.173Z,2.70
2023-02-25T02:46:29.036Z,2.43
2023-02-25T02:47:44.602Z,3.13
2023-02-25T02:49:05.556Z,2.70
2023-02-25T02:50:18.316Z,2.70
2023-02-25T02:51:23.045Z,2.67
2023-02-25T02:52:28.636Z,2.43
2023-02-25T02:53:36.620Z,2.77
2023-02-25T02:54:38.833Z,2.70
2023-02-25T02:55:43.365Z,2.27
2023-02-25T02:56:46.729Z,2.57
2023-02-25T02:57:48.885Z,2.50
2023-02-25T02:58:57.463Z,2.80
2023-02-25T03:00:01.219Z,2.50
2023-02-25T03:01:08.848Z,2.17
2023-02-25T03:02:13.392Z,2.70
2023-02-25T03:03:17.410Z,2.67
2023-02-25T03:04:21.801Z,2.23
2023-02-25T03:05:26.424Z,2.80
2023-02-25T03:06:33.317Z,2.50
2023-02-25T03:07:36.417Z,2.57
2023-02-25T03:08:49.937Z,2.50
2023-02-25T03:09:54.044Z,2.30
2023-02-25T03:10:55.564Z,2.90
2023-02-25T03:11:57.106Z,2.40
2023-02-25T03:12:58.447Z,2.23
2023-02-25T03:14:00.726Z,2.03
2023-02-25T03:15:02.812Z,2.40
2023-02-25T03:16:07.346Z,2.57
2023-02-25T03:17:09.804Z,2.10
2023-02-25T03:18:23.787Z,1.93
2023-02-25T03:19:27.017Z,2.40
2023-02-25T03:20:29.597Z,2.30
2023-02-25T03:21:35.737Z,2.70
2023-02-25T03:22:39.316Z,2.17
2023-02-25T03:23:43.048Z,1.70
2023-02-25T03:24:52.838Z,1.80
2023-02-25T03:26:00.207Z,1.70
2023-02-25T03:27:22.676Z,1.97
2023-02-25T03:28:29.741Z,1.67
2023-02-25T03:29:31.174Z,1.47
2023-02-25T03:30:37.278Z,1.77
2023-02-25T03:31:42.035Z,1.73
2023-02-25T03:32:52.729Z,2.17
2023-02-25T03:33:56.338Z,1.70
2023-02-25T03:34:59.834Z,1.53
2023-02-25T03:36:05.074Z,1.70
2023-02-25T03:37:14.523Z,1.70
2023-02-25T03:38:19.214Z,1.70
2023-02-25T03:39:24.763Z,1.70
2023-02-25T03:40:26.564Z,1.67
2023-02-25T03:41:30.840Z,1.77
2023-02-25T03:42:34.108Z,1.50
2023-02-25T03:43:39.240Z,1.90
2023-02-25T03:44:43.712Z,1.70
2023-02-25T03:45:45.343Z,1.60
2023-02-25T03:46:47.438Z,1.90
2023-02-25T03:47:48.984Z,1.20
2023-02-25T03:48:51.358Z,1.33
2023-02-25T03:50:04.967Z,1.60
2023-02-25T03:51:06.616Z,1.57
2023-02-25T03:52:13.656Z,1.50
2023-02-25T03:53:15.334Z,1.73
2023-02-25T03:54:37.148Z,1.43
2023-02-25T03:55:38.537Z,1.17
2023-02-25T03:56:41.816Z,1.57
2023-02-25T03:57:44.734Z,1.30
2023-02-25T03:58:46.313Z,1.40
2023-02-25T03:59:47.707Z,1.43
2023-02-25T04:00:52.572Z,1.20
2023-02-25T04:01:54.836Z,1.80
2023-02-25T04:02:56.528Z,1.37
2023-02-25T04:03:57.832Z,1.73
2023-02-25T04:04:59.335Z,1.30
2023-02-25T04:06:00.784Z,1.40
2023-02-25T04:07:02.072Z,1.40
2023-02-25T04:08:03.629Z,1.10
2023-02-25T04:09:08.432Z,1.30
2023-02-25T04:10:11.171Z,1.67
2023-02-25T04:11:12.501Z,1.50
2023-02-25T04:12:15.880Z,1.43
2023-02-25T04:13:20.689Z,1.80
2023-02-25T04:14:23.658Z,1.23
2023-02-25T04:15:27.517Z,1.50
2023-02-25T04:16:29.023Z,1.20
2023-02-25T04:17:32.232Z,1.17
2023-02-25T04:18:33.710Z,1.10
2023-02-25T04:19:36.955Z,1.23
2023-02-25T04:20:39.181Z,1.67
2023-02-25T04:21:40.596Z,1.47
2023-02-25T04:22:41.948Z,1.50
2023-02-25T04:23:43.260Z,1.50
2023-02-25T04:24:44.881Z,1.50
2023-02-25T04:25:46.376Z,1.07
2023-02-25T04:26:48.043Z,1.20
2023-02-25T04:27:51.978Z,1.37
2023-02-25T04:28:53.441Z,1.53
2023-02-25T04:29:54.806Z,1.67
2023-02-25T04:30:56.496Z,1.20
2023-02-25T04:31:58.154Z,1.20
2023-02-25T04:32:59.710Z,1.70
2023-02-25T04:34:01.071Z,1.50
2023-02-25T04:35:03.413Z,1.33
2023-02-25T04:36:05.006Z,1.10
2023-02-25T04:37:06.691Z,1.43
2023-02-25T04:38:09.365Z,1.50
2023-02-25T04:39:11.533Z,1.40
2023-02-25T04:40:14.774Z,1.50
2023-02-25T04:41:16.124Z,1.50
2023-02-25T04:42:17.530Z,1.50
2023-02-25T04:43:19.268Z,1.47
2023-02-25T04:44:20.590Z,1.30
2023-02-25T04:45:26.967Z,1.30
2023-02-25T04:46:28.609Z,1.50
2023-02-25T04:47:30.045Z,1.43
2023-02-25T04:48:31.334Z,1.20
2023-02-25T04:49:32.641Z,1.30
2023-02-25T04:50:34.044Z,1.23
2023-02-25T04:51:35.889Z,1.63
2023-02-25T04:52:37.327Z,1.03
2023-02-25T04:53:38.730Z,1.43
2023-02-25T04:54:40.208Z,1.20
2023-02-25T04:55:41.550Z,1.60
2023-02-25T04:56:42.865Z,1.33
2023-02-25T04:57:44.165Z,1.70
2023-02-25T04:58:45.519Z,1.00
2023-02-25T04:59:47.050Z,1.30
2023-02-25T05:00:48.490Z,1.63
2023-02-25T05:01:49.970Z,1.57
2023-02-25T05:02:51.558Z,1.40
2023-02-25T05:03:57.002Z,1.40
2023-02-25T05:04:59.196Z,1.30
2023-02-25T05:06:01.149Z,1.70
2023-02-25T05:07:02.748Z,1.50
2023-02-25T05:08:04.289Z,1.30
2023-02-25T05:09:05.753Z,1.47
2023-02-25T05:10:08.706Z,1.20
2023-02-25T05:11:10.209Z,1.30
2023-02-25T05:12:11.847Z,1.63
2023-02-25T05:13:13.175Z,1.63
2023-02-25T05:14:14.704Z,1.60
2023-02-25T05:15:18.615Z,1.60
2023-02-25T05:16:19.997Z,1.77
2023-02-25T05:17:21.568Z,1.50
2023-02-25T05:18:23.718Z,1.53
2023-02-25T05:19:25.658Z,1.30
2023-02-25T05:20:28.614Z,1.77
2023-02-25T05:21:30.025Z,1.80
2023-02-25T05:22:31.390Z,1.53
2023-02-25T05:23:32.717Z,1.83
2023-02-25T05:24:34.462Z,1.77
2023-02-25T05:25:35.911Z,2.10
2023-02-25T05:26:37.379Z,1.43
2023-02-25T05:27:38.857Z,1.60
2023-02-25T05:28:40.338Z,1.50
2023-02-25T05:29:41.792Z,1.60
2023-02-25T05:30:43.101Z,1.47
2023-02-25T05:31:44.619Z,2.10
2023-02-25T05:32:46.320Z,1.43
2023-02-25T05:33:47.844Z,1.27
2023-02-25T05:34:49.284Z,1.60
2023-02-25T05:35:50.849Z,1.83
2023-02-25T05:36:52.188Z,1.70
2023-02-25T05:37:54.678Z,1.63
2023-02-25T05:38:58.749Z,1.80
2023-02-25T05:40:01.168Z,1.30
2023-02-25T05:41:02.692Z,1.70
2023-02-25T05:42:04.222Z,1.70
2023-02-25T05:43:05.708Z,1.80
2023-02-25T05:44:07.774Z,1.70
2023-02-25T05:45:09.625Z,1.63
2023-02-25T05:46:11.969Z,1.97
2023-02-25T05:47:15.102Z,2.00
2023-02-25T05:48:16.425Z,2.43
2023-02-25T05:49:17.783Z,1.83
2023-02-25T05:50:19.166Z,1.87
2023-02-25T05:51:23.177Z,2.00
2023-02-25T05:52:24.505Z,1.60
2023-02-25T05:53:25.807Z,1.60
2023-02-25T05:54:27.183Z,2.00
2023-02-25T05:55:28.706Z,1.80
2023-02-25T05:56:32.139Z,1.50
2023-02-25T05:57:33.829Z,1.90
2023-02-25T05:58:35.305Z,1.70
2023-02-25T05:59:36.884Z,1.83
2023-02-25T06:00:38.859Z,1.70
2023-02-25T06:01:41.930Z,1.90
2023-02-25T06:02:44.522Z,1.73
2023-02-25T06:03:46.739Z,2.03
2023-02-25T06:04:48.107Z,1.70
2023-02-25T06:05:49.496Z,2.30
2023-02-25T06:06:51.811Z,1.70
2023-02-25T06:07:53.183Z,2.10
2023-02-25T06:08:54.539Z,2.00
2023-02-25T06:09:59.999Z,2.63
2023-02-25T06:11:02.132Z,2.57
2023-02-25T06:12:03.527Z,1.70
2023-02-25T06:13:05.684Z,2.00
2023-02-25T06:14:06.976Z,2.30
2023-02-25T06:15:08.817Z,1.80
2023-02-25T06:16:10.173Z,1.90
2023-02-25T06:17:11.860Z,2.00
2023-02-25T06:18:13.615Z,2.43
2023-02-25T06:19:18.257Z,2.40
2023-02-25T06:20:19.919Z,1.87
2023-02-25T06:21:22.044Z,1.77
2023-02-25T06:22:24.456Z,2.37
2023-02-25T06:23:25.819Z,1.80
2023-02-25T06:24:27.149Z,2.00
2023-02-25T06:25:29.914Z,1.93
2023-02-25T06:26:31.240Z,1.90
2023-02-25T06:27:32.987Z,1.97
2023-02-25T06:28:34.626Z,2.17
2023-02-25T06:29:36.468Z,2.07
2023-02-25T06:30:37.934Z,2.00
2023-02-25T06:31:39.377Z,1.97
2023-02-25T06:32:40.744Z,1.93
2023-02-25T06:33:42.306Z,1.50
2023-02-25T06:34:43.638Z,2.00
2023-02-25T06:35:44.932Z,1.80
2023-02-25T06:36:46.510Z,2.00
2023-02-25T06:37:47.826Z,2.00
2023-02-25T06:38:49.305Z,2.73
2023-02-25T06:39:52.006Z,2.00
2023-02-25T06:40:53.380Z,1.93
2023-02-25T06:41:54.702Z,1.80
2023-02-25T06:42:56.032Z,2.27
2023-02-25T06:43:57.390Z,2.17
2023-02-25T06:44:58.804Z,2.27
2023-02-25T06:46:04.050Z,1.90
2023-02-25T06:47:05.518Z,1.70
2023-02-25T06:48:06.906Z,1.90
2023-02-25T06:49:08.265Z,1.67
2023-02-25T06:50:09.902Z,1.60
2023-02-25T06:51:12.752Z,1.73
2023-02-25T06:52:14.268Z,1.83
2023-02-25T06:53:15.662Z,1.83
2023-02-25T06:54:17.699Z,1.47
2023-02-25T06:55:19.195Z,1.60
2023-02-25T06:56:21.877Z,1.70
2023-02-25T06:57:23.529Z,1.80
2023-02-25T06:58:24.861Z,1.50
2023-02-25T06:59:26.242Z,1.70
2023-02-25T07:00:27.574Z,1.63
2023-02-25T07:01:28.973Z,1.60
2023-02-25T07:02:30.327Z,1.80
2023-02-25T07:03:31.652Z,1.63
2023-02-25T07:04:33.096Z,1.97
2023-02-25T07:05:34.532Z,1.97
2023-02-25T07:06:35.848Z,1.83
2023-02-25T07:07:37.155Z,2.03
2023-02-25T07:08:38.537Z,1.80
2023-02-25T07:09:39.998Z,1.60
2023-02-25T07:10:41.904Z,2.40
2023-02-25T07:11:43.284Z,1.67
2023-02-25T07:12:44.768Z,2.00
2023-02-25T07:13:46.491Z,1.67
2023-02-25T07:14:47.859Z,2.20
2023-02-25T07:15:49.211Z,1.60
2023-02-25T07:16:51.218Z,2.03
2023-02-25T07:17:52.577Z,1.70
2023-02-25T07:18:53.913Z,1.77
2023-02-25T07:19:56.114Z,1.83
2023-02-25T07:20:58.116Z,1.47
2023-02-25T07:21:59.415Z,1.50
2023-02-25T07:23:04.269Z,1.53
2023-02-25T07:24:05.754Z,1.70
2023-02-25T07:25:07.580Z,2.07
2023-02-25T07:26:09.847Z,2.53
2023-02-25T07:27:14.188Z,1.80
2023-02-25T07:28:16.365Z,1.90
2023-02-25T07:29:17.647Z,1.93
2023-02-25T07:30:19.139Z,1.93
2023-02-25T07:31:22.159Z,1.90
2023-02-25T07:32:24.619Z,2.23
2023-02-25T07:33:26.183Z,2.10
2023-02-25T07:34:27.498Z,1.90
2023-02-25T07:35:28.834Z,1.60
2023-02-25T07:36:35.220Z,1.80
2023-02-25T07:37:37.473Z,1.90
2023-02-25T07:38:39.598Z,1.80
2023-02-25T07:39:41.269Z,1.90
2023-02-25T07:40:43.056Z,1.73
2023-02-25T07:41:44.547Z,1.60
2023-02-25T07:42:46.746Z,1.50
2023-02-25T07:43:48.052Z,1.70
2023-02-25T07:44:49.700Z,1.63
2023-02-25T07:45:51.240Z,1.63
2023-02-25T07:46:52.611Z,1.60
2023-02-25T07:47:54.000Z,2.00
2023-02-25T07:48:55.397Z,1.60
2023-02-25T07:49:56.690Z,1.77
2023-02-25T07:51:05.052Z,1.53
2023-02-25T07:52:07.467Z,1.60
2023-02-25T07:53:08.828Z,1.90
2023-02-25T07:54:10.176Z,1.50
2023-02-25T07:55:11.919Z,1.87
2023-02-25T07:56:13.737Z,2.17
2023-02-25T07:57:15.073Z,1.53
2023-02-25T07:58:16.511Z,2.17
2023-02-25T07:59:18.346Z,2.00
2023-02-25T08:00:19.870Z,1.90
2023-02-25T08:01:25.852Z,1.87
2023-02-25T08:02:27.403Z,1.97
2023-02-25T08:03:29.057Z,1.90
2023-02-25T08:04:30.439Z,1.80
2023-02-25T08:05:35.900Z,1.90
2023-02-25T08:06:41.012Z,1.87
2023-02-25T08:07:42.474Z,1.67
2023-02-25T08:08:43.991Z,1.83
2023-02-25T08:09:45.366Z,2.13
2023-02-25T08:10:46.995Z,1.50
2023-02-25T08:11:48.298Z,1.70
2023-02-25T08:12:49.632Z,2.10
2023-02-25T08:13:51.006Z,1.63
2023-02-25T08:14:52.426Z,1.57
2023-02-25T08:15:53.849Z,1.30
2023-02-25T08:16:56.271Z,1.57
2023-02-25T08:17:57.552Z,1.90
2023-02-25T08:18:59.083Z,1.60
2023-02-25T08:20:00.440Z,1.50
2023-02-25T08:21:02.966Z,1.63
2023-02-25T08:22:04.730Z,1.60
2023-02-25T08:23:06.368Z,1.60
2023-02-25T08:24:08.114Z,1.83
2023-02-25T08:25:09.716Z,1.63
2023-02-25T08:26:11.437Z,2.00
2023-02-25T08:27:12.799Z,1.83
2023-02-25T08:28:14.133Z,1.73
2023-02-25T08:29:15.561Z,1.60
2023-02-25T08:30:17.085Z,1.90
2023-02-25T08:31:18.746Z,1.77
2023-02-25T08:32:20.452Z,1.83
2023-02-25T08:33:21.851Z,1.67
2023-02-25T08:34:23.362Z,1.67
2023-02-25T08:35:28.259Z,1.27
2023-02-25T08:36:31.146Z,1.60
2023-02-25T08:37:33.285Z,1.80
2023-02-25T08:38:34.602Z,2.30
2023-02-25T08:39:36.019Z,1.97
2023-02-25T08:40:37.354Z,2.03
2023-02-25T08:41:39.035Z,2.03
2023-02-25T08:42:40.496Z,1.93
2023-02-25T08:43:42.207Z,1.87
2023-02-25T08:44:44.571Z,1.60
2023-02-25T08:45:46.223Z,2.07
2023-02-25T08:46:47.633Z,1.93
2023-02-25T08:47:49.604Z,1.70
2023-02-25T08:48:51.522Z,2.47
2023-02-25T08:49:52.848Z,1.60
2023-02-25T08:50:55.560Z,1.77
2023-02-25T08:51:57.066Z,1.70
2023-02-25T08:52:58.461Z,1.70
2023-02-25T08:54:01.140Z,1.97
2023-02-25T08:55:03.428Z,1.30
2023-02-25T08:56:05.405Z,2.13
2023-02-25T08:57:06.788Z,1.80
2023-02-25T08:58:08.305Z,1.80
2023-02-25T08:59:12.398Z,1.67
2023-02-25T09:00:16.712Z,1.80
2023-02-25T09:01:18.208Z,1.90
2023-02-25T09:02:19.602Z,1.80
2023-02-25T09:03:20.928Z,1.70
2023-02-25T09:04:23.455Z,1.73
2023-02-25T09:05:25.019Z,1.57
2023-02-25T09:06:28.145Z,1.83
2023-02-25T09:07:30.667Z,1.93
2023-02-25T09:08:32.113Z,1.80
2023-02-25T09:09:34.078Z,1.63
2023-02-25T09:10:48.225Z,2.03
2023-02-25T09:11:51.304Z,1.73
2023-02-25T09:12:53.465Z,2.40
2023-02-25T09:13:55.095Z,2.23
2023-02-25T09:14:56.475Z,2.00
2023-02-25T09:15:58.277Z,3.10
2023-02-25T09:16:59.653Z,2.53
2023-02-25T09:18:01.024Z,2.33
2023-02-25T09:19:02.805Z,3.00
2023-02-25T09:20:07.209Z,3.27
2023-02-25T09:21:08.566Z,1.97
2023-02-25T09:22:10.202Z,2.90
2023-02-25T09:23:11.586Z,2.20
2023-02-25T09:24:12.912Z,1.87
2023-02-25T09:25:14.298Z,1.90
2023-02-25T09:26:15.656Z,2.10
2023-02-25T09:27:16.968Z,2.07
2023-02-25T09:28:18.414Z,2.40
2023-02-25T09:29:19.789Z,1.87
2023-02-25T09:30:21.225Z,1.77
2023-02-25T09:31:23.225Z,1.90
2023-02-25T09:32:25.432Z,1.70
2023-02-25T09:33:26.846Z,1.67
2023-02-25T09:34:28.196Z,1.70
2023-02-25T09:35:29.781Z,1.93
2023-02-25T09:36:31.161Z,1.97
2023-02-25T09:37:32.805Z,1.50
2023-02-25T09:38:35.072Z,1.70
2023-02-25T09:39:36.425Z,1.70
2023-02-25T09:40:38.160Z,1.70
2023-02-25T09:41:55.622Z,1.90
2023-02-25T09:43:19.252Z,1.97
2023-02-25T09:44:23.047Z,1.93
2023-02-25T09:45:25.084Z,1.90
2023-02-25T09:46:29.740Z,1.90
2023-02-25T09:47:34.450Z,1.60
2023-02-25T09:48:38.925Z,1.90
2023-02-25T09:49:42.858Z,2.30
2023-02-25T09:50:52.227Z,2.40
2023-02-25T09:51:57.564Z,2.00
2023-02-25T09:53:07.335Z,2.20
2023-02-25T09:54:15.682Z,2.13
2023-02-25T09:55:22.715Z,2.13
2023-02-25T09:56:26.777Z,2.30
2023-02-25T09:57:29.658Z,1.97
2023-02-25T09:58:37.080Z,1.83
2023-02-25T09:59:44.735Z,1.70
2023-02-25T10:00:55.620Z,1.70
2023-02-25T10:02:00.347Z,1.73
2023-02-25T10:03:07.142Z,1.90
2023-02-25T10:04:42.658Z,1.73
2023-02-25T10:05:46.645Z,1.87
2023-02-25T10:07:06.016Z,1.97
2023-02-25T10:08:26.799Z,1.50
2023-02-25T10:09:39.375Z,1.60
2023-02-25T10:10:47.092Z,1.60
2023-02-25T10:12:20.385Z,1.53
2023-02-25T10:13:46.286Z,1.93
2023-02-25T10:15:01.224Z,2.30
2023-02-25T10:16:26.244Z,2.17
2023-02-25T10:17:51.440Z,1.70
2023-02-25T10:19:07.002Z,1.87
2023-02-25T10:20:26.963Z,1.33
2023-02-25T10:21:49.514Z,1.80
2023-02-25T10:23:01.814Z,1.50
2023-02-25T10:24:20.870Z,1.30
2023-02-25T10:25:52.337Z,1.53
2023-02-25T10:27:12.122Z,1.50
2023-02-25T10:28:35.366Z,1.40
2023-02-25T10:29:41.863Z,1.40
2023-02-25T10:30:44.315Z,1.60
2023-02-25T10:31:47.313Z,1.30
2023-02-25T10:32:49.254Z,1.50
2023-02-25T10:33:54.754Z,1.63
2023-02-25T10:35:00.647Z,1.70
2023-02-25T10:36:10.582Z,2.13
2023-02-25T10:37:18.954Z,1.90
2023-02-25T10:38:23.418Z,1.90
2023-02-25T10:39:27.589Z,2.10
2023-02-25T10:40:35.402Z,2.83
2023-02-25T10:41:39.870Z,1.80
2023-02-25T10:42:43.693Z,2.20
2023-02-25T10:43:45.836Z,2.00
2023-02-25T10:44:47.480Z,1.60
2023-02-25T10:45:56.665Z,1.60
2023-02-25T10:47:00.534Z,1.63
2023-02-25T10:48:14.446Z,1.70
2023-02-25T10:49:25.282Z,2.20
2023-02-25T10:50:42.867Z,2.20
2023-02-25T10:52:02.969Z,2.07
2023-02-25T10:53:06.413Z,1.77
2023-02-25T10:54:14.401Z,2.67
2023-02-25T10:55:27.291Z,2.37
2023-02-25T10:56:32.534Z,1.43
2023-02-25T10:57:41.566Z,1.67
2023-02-25T10:58:59.333Z,1.70
2023-02-25T11:00:13.119Z,1.60
2023-02-25T11:01:19.704Z,2.10
2023-02-25T11:02:28.520Z,2.03
2023-02-25T11:03:40.461Z,1.67
2023-02-25T11:04:42.960Z,1.60
2023-02-25T11:05:45.043Z,2.13
2023-02-25T11:06:47.645Z,1.73
2023-02-25T11:07:49.916Z,2.00
2023-02-25T11:08:53.096Z,1.80
2023-02-25T11:10:13.119Z,1.60
2023-02-25T11:11:20.092Z,2.17
2023-02-25T11:12:21.946Z,1.83
2023-02-25T11:13:28.020Z,2.30
2023-02-25T11:14:32.466Z,1.77
2023-02-25T11:15:45.845Z,2.33
2023-02-25T11:16:47.881Z,1.93
2023-02-25T11:17:49.243Z,2.30
2023-02-25T11:18:52.397Z,2.30
2023-02-25T11:19:59.598Z,2.03
2023-02-25T11:21:02.956Z,2.23
2023-02-25T11:22:21.111Z,2.20
2023-02-25T11:23:40.439Z,1.67
2023-02-25T11:24:47.049Z,1.67
2023-02-25T11:25:51.590Z,1.63
2023-02-25T11:26:53.334Z,1.67
2023-02-25T11:28:00.293Z,1.43
2023-02-25T11:29:12.406Z,1.90
2023-02-25T11:30:14.370Z,1.87
2023-02-25T11:31:24.266Z,2.20
2023-02-25T11:32:32.334Z,1.73
2023-02-25T11:33:37.977Z,1.90
2023-02-25T11:34:46.535Z,1.77
2023-02-25T11:36:06.326Z,2.37
2023-02-25T11:37:24.057Z,2.20
2023-02-25T11:38:50.460Z,1.53
2023-02-25T11:39:59.354Z,1.97
2023-02-25T11:41:01.963Z,1.73
2023-02-25T11:42:29.716Z,1.57
2023-02-25T11:43:48.122Z,1.70
2023-02-25T11:45:07.254Z,2.07
2023-02-25T11:46:20.061Z,1.50
2023-02-25T11:47:26.926Z,1.70
2023-02-25T11:48:30.943Z,2.30
2023-02-25T11:49:58.423Z,1.70
2023-02-25T11:50:59.710Z,1.83
2023-02-25T11:52:05.907Z,2.00
2023-02-25T11:53:44.171Z,2.20
2023-02-25T11:54:52.873Z,1.60
2023-02-25T11:56:05.469Z,2.23
2023-02-25T11:57:33.711Z,1.60
2023-02-25T11:58:41.093Z,1.80
2023-02-25T11:59:55.006Z,1.97
2023-02-25T12:01:00.143Z,1.50
2023-02-25T12:02:15.271Z,1.90
2023-02-25T12:03:16.609Z,2.17
2023-02-25T12:04:30.144Z,1.83
2023-02-25T12:05:40.368Z,2.27
2023-02-25T12:06:56.750Z,1.93
2023-02-25T12:08:19.014Z,1.97
2023-02-25T12:09:24.113Z,2.00
2023-02-25T12:10:33.150Z,1.80
2023-02-25T12:12:09.890Z,2.30
2023-02-25T12:13:31.490Z,1.80
2023-02-25T12:14:38.706Z,1.43
2023-02-25T12:15:40.104Z,1.70
2023-02-25T12:16:44.661Z,1.70
2023-02-25T12:17:52.728Z,1.60
2023-02-25T12:19:13.017Z,1.60
2023-02-25T12:20:26.536Z,2.27
2023-02-25T12:21:43.252Z,1.83
2023-02-25T12:23:04.035Z,1.70
2023-02-25T12:24:14.254Z,2.13
2023-02-25T12:25:36.837Z,2.00
2023-02-25T12:26:41.914Z,1.67
2023-02-25T12:27:43.798Z,1.63
2023-02-25T12:29:00.026Z,1.93
2023-02-25T12:30:37.253Z,2.33
2023-02-25T12:31:42.124Z,2.40
2023-02-25T12:33:05.211Z,1.80
2023-02-25T12:34:09.592Z,2.00
2023-02-25T12:35:20.670Z,1.80
2023-02-25T12:36:28.271Z,2.33
2023-02-25T12:37:46.057Z,2.90
2023-02-25T12:39:01.574Z,1.53
2023-02-25T12:40:12.536Z,2.00
2023-02-25T12:41:14.789Z,2.30
2023-02-25T12:42:36.677Z,1.63
2023-02-25T12:43:59.999Z,1.90
2023-02-25T12:45:19.905Z,1.50
2023-02-25T12:46:30.785Z,2.20
2023-02-25T12:47:41.623Z,1.57
2023-02-25T12:48:59.567Z,1.90
2023-02-25T12:50:07.669Z,1.90
2023-02-25T12:51:15.468Z,2.10
2023-02-25T12:52:35.733Z,1.90
2023-02-25T12:53:37.411Z,2.10
2023-02-25T12:55:02.408Z,1.87
2023-02-25T12:56:09.889Z,2.10
2023-02-25T12:57:22.594Z,1.80
2023-02-25T12:58:44.282Z,1.90
2023-02-25T12:59:45.970Z,1.57
2023-02-25T13:01:04.769Z,1.60
2023-02-25T13:02:14.727Z,2.10
2023-02-25T13:03:33.445Z,1.50
2023-02-25T13:04:58.120Z,1.97
2023-02-25T13:08:18.603Z,2.00
2023-02-25T13:09:32.436Z,1.93
2023-02-25T13:10:51.870Z,1.80
2023-02-25T13:12:13.422Z,2.47
2023-02-25T13:13:21.064Z,1.43
2023-02-25T13:14:32.386Z,1.33
2023-02-25T13:15:53.992Z,1.40
2023-02-25T13:16:58.916Z,2.07
2023-02-25T13:18:00.797Z,1.97
2023-02-25T13:19:21.354Z,2.40
2023-02-25T13:20:22.919Z,2.70
2023-02-25T13:21:35.938Z,2.43
2023-02-25T13:23:04.742Z,2.13
2023-02-25T13:24:11.658Z,2.83
2023-02-25T13:25:19.981Z,2.60
2023-02-25T13:26:45.420Z,2.23
2023-02-25T13:28:05.382Z,2.27
2023-02-25T13:29:19.922Z,1.97
2023-02-25T13:30:33.386Z,1.83
2023-02-25T13:31:41.820Z,1.60
2023-02-25T13:33:04.443Z,1.60
2023-02-25T13:34:34.641Z,2.13
2023-02-25T13:35:59.404Z,1.37
2023-02-25T13:37:22.195Z,1.37
2023-02-25T13:38:23.864Z,1.50
2023-02-25T13:39:48.866Z,1.83
2023-02-25T13:41:09.350Z,1.50
2023-02-25T13:42:21.747Z,1.50
2023-02-25T13:43:38.682Z,1.57
2023-02-25T13:44:52.794Z,1.47
2023-02-25T13:46:03.057Z,1.77
2023-02-25T13:47:10.986Z,1.70
2023-02-25T13:48:32.476Z,1.43
2023-02-25T13:50:04.029Z,1.33
2023-02-25T13:51:12.612Z,1.70
2023-02-25T13:52:16.631Z,1.50
2023-02-25T13:53:25.500Z,1.77
2023-02-25T13:54:27.629Z,1.50
2023-02-25T13:55:35.808Z,1.83
2023-02-25T13:56:46.853Z,1.67
2023-02-25T13:57:51.606Z,1.40
2023-02-25T13:59:07.613Z,1.40
2023-02-25T14:00:28.025Z,1.70
2023-02-25T14:01:40.388Z,1.90
2023-02-25T14:03:04.336Z,1.77
2023-02-25T14:04:43.447Z,1.70
2023-02-25T14:05:45.002Z,1.70
2023-02-25T14:07:02.365Z,2.00
2023-02-25T14:08:16.133Z,2.00
2023-02-25T14:09:23.966Z,2.33
2023-02-25T14:10:44.661Z,2.27
2023-02-25T14:12:11.583Z,2.50
2023-02-25T14:13:25.728Z,2.00
2023-02-25T14:14:33.388Z,2.07
2023-02-25T14:15:41.631Z,2.50
2023-02-25T14:16:55.148Z,2.90
2023-02-25T14:17:56.802Z,3.90
2023-02-25T14:19:01.503Z,2.73
2023-02-25T14:20:28.009Z,2.20
2023-02-25T14:21:32.665Z,2.70
2023-02-25T14:22:44.144Z,2.77
2023-02-25T14:23:52.193Z,5.83
2023-02-25T14:25:03.067Z,3.50
2023-02-25T14:26:07.676Z,3.67
2023-02-25T14:27:25.090Z,3.57
2023-02-25T14:28:34.756Z,2.00
2023-02-25T14:29:59.664Z,2.67
2023-02-25T14:31:15.932Z,2.20
2023-02-25T14:32:38.559Z,2.30
2023-02-25T14:33:52.728Z,1.90
2023-02-25T14:35:10.085Z,1.73
2023-02-25T14:36:23.231Z,1.90
2023-02-25T14:37:37.423Z,1.90
2023-02-25T14:38:41.973Z,1.30
2023-02-25T14:39:53.758Z,1.20
2023-02-25T14:41:01.352Z,1.00